Time;durP1;ratioP1;P1;durP2;ratioP2;P2;SDS_P1;SDS_P2;PMS_P1;PMS_P2;Temp;Humidity;BMP_temperature;BMP_pressure;BME280_temperature;BME280_humidity;BME280_pressure;Samples;Min_cycle;Max_cycle;Signal;HPM_P1;HPM_P2
2021/05/01 00:01:32;;;;;;;62.80;41.63;;;;;;;10.07;64.34;100095.63;5082882;28;20472;-65
2021/05/01 00:03:59;;;;;;;64.77;41.40;;;;;;;9.90;65.16;100105.19;5087256;28;20459;-65
2021/05/01 00:06:25;;;;;;;70.50;42.70;;;;;;;9.92;65.58;100097.88;5083148;28;20476;-64
2021/05/01 00:08:51;;;;;;;70.53;42.97;;;;;;;9.97;66.08;100092.13;5095867;28;20434;-63
2021/05/01 00:11:19;;;;;;;72.87;45.70;;;;;;;9.95;66.29;100089.56;5102503;28;20463;-63
2021/05/01 00:13:46;;;;;;;67.10;44.80;;;;;;;10.01;65.90;100077.47;5101552;28;20473;-64
2021/05/01 00:16:12;;;;;;;68.23;41.93;;;;;;;10.03;65.03;100082.69;5101170;28;20474;-64
2021/05/01 00:18:38;;;;;;;65.30;42.63;;;;;;;10.04;64.42;100068.34;5103063;28;20527;-63
2021/05/01 00:21:05;;;;;;;69.93;43.37;;;;;;;10.04;63.88;100079.03;5096422;28;20509;-64
2021/05/01 00:23:32;;;;;;;63.67;39.83;;;;;;;9.98;63.82;100069.75;5083132;28;20942;-64
2021/05/01 00:25:59;;;;;;;61.50;40.90;;;;;;;9.98;63.87;100075.94;5087052;28;20521;-64
2021/05/01 00:28:25;;;;;;;59.97;41.00;;;;;;;9.90;63.74;100072.28;5103240;28;20454;-64
2021/05/01 00:30:51;;;;;;;69.07;43.07;;;;;;;9.70;65.06;100069.59;5094494;28;20479;-64
2021/05/01 00:33:18;;;;;;;66.40;41.80;;;;;;;9.55;65.25;100066.50;5083170;28;20424;-64
2021/05/01 00:35:44;;;;;;;72.63;41.53;;;;;;;9.55;65.19;100060.34;5081602;28;20525;-64
2021/05/01 00:38:11;;;;;;;64.87;40.33;;;;;;;9.55;64.63;100061.19;5083193;28;21034;-64
2021/05/01 00:40:37;;;;;;;63.27;41.10;;;;;;;9.55;64.30;100065.69;5081747;28;20529;-63
2021/05/01 00:43:03;;;;;;;62.83;40.10;;;;;;;9.49;64.04;100056.38;5071731;28;20551;-64
2021/05/01 00:45:29;;;;;;;63.93;40.83;;;;;;;9.30;64.79;100061.69;5091827;28;21039;-64
2021/05/01 00:47:56;;;;;;;61.67;40.77;;;;;;;9.21;65.45;100058.84;5088187;28;20530;-64
2021/05/01 00:50:22;;;;;;;64.90;40.70;;;;;;;9.31;64.93;100058.88;5083152;28;20455;-64
2021/05/01 00:52:48;;;;;;;62.77;40.07;;;;;;;9.39;64.40;100060.84;5082649;28;20494;-64
2021/05/01 00:55:16;;;;;;;66.57;39.73;;;;;;;9.34;64.53;100060.41;5098903;28;20455;-64
2021/05/01 00:57:42;;;;;;;64.73;40.23;;;;;;;9.27;64.33;100053.94;5102297;28;20467;-64
2021/05/01 01:00:21;;;;;;;64.40;40.27;;;;;;;9.26;64.35;100062.94;5081908;28;20455;-64
2021/05/01 01:02:47;;;;;;;65.93;41.27;;;;;;;9.31;64.04;100063.38;5082538;28;20451;-64
2021/05/01 01:05:13;;;;;;;63.10;39.60;;;;;;;9.31;63.56;100058.88;5081605;28;20528;-64
2021/05/01 01:07:39;;;;;;;58.30;38.90;;;;;;;9.38;63.77;100059.19;5092749;28;20465;-64
2021/05/01 01:10:06;;;;;;;63.80;40.57;;;;;;;9.31;64.01;100055.38;5100573;28;20821;-64
2021/05/01 01:12:33;;;;;;;62.37;38.70;;;;;;;9.24;64.09;100050.56;5087929;28;20444;-64
2021/05/01 01:15:00;;;;;;;63.43;39.70;;;;;;;9.12;64.34;100050.84;5081774;28;20459;-64
2021/05/01 01:17:26;;;;;;;60.07;40.97;;;;;;;9.04;64.04;100048.84;5094726;28;20499;-64
2021/05/01 01:19:53;;;;;;;67.07;41.80;;;;;;;8.97;64.57;100053.84;5102228;28;20466;-65
2021/05/01 01:22:20;;;;;;;65.50;39.40;;;;;;;9.02;64.37;100050.78;5100858;28;20482;-65
2021/05/01 01:24:47;;;;;;;61.50;40.00;;;;;;;8.99;64.30;100054.59;5102319;28;20451;-65
2021/05/01 01:27:13;;;;;;;63.03;40.03;;;;;;;8.93;63.91;100047.13;5086928;28;20494;-65
2021/05/01 01:29:41;;;;;;;63.00;41.40;;;;;;;8.93;64.45;100047.13;5086381;28;20493;-65
2021/05/01 01:32:08;;;;;;;68.53;42.97;;;;;;;8.91;64.82;100051.75;5101118;28;20482;-65
2021/05/01 01:34:34;;;;;;;68.27;41.73;;;;;;;8.82;65.51;100055.22;5102094;28;20459;-65
2021/05/01 01:37:01;;;;;;;66.50;42.23;;;;;;;8.85;65.16;100049.59;5101023;28;20509;-65
2021/05/01 01:39:28;;;;;;;64.30;40.43;;;;;;;8.82;64.75;100049.91;5101532;28;20430;-65
2021/05/01 01:41:54;;;;;;;63.30;39.57;;;;;;;8.76;64.45;100053.94;5101444;28;20596;-65
2021/05/01 01:44:20;;;;;;;65.33;41.00;;;;;;;8.81;64.04;100054.38;5101192;28;20475;-65
2021/05/01 01:46:47;;;;;;;59.90;38.33;;;;;;;8.76;63.83;100061.09;5100958;28;20467;-65
2021/05/01 01:49:13;;;;;;;56.93;36.70;;;;;;;8.74;63.89;100044.38;5101843;28;20454;-65
2021/05/01 01:51:39;;;;;;;61.87;38.57;;;;;;;8.80;63.57;100049.16;5101112;28;20470;-65
2021/05/01 01:54:06;;;;;;;57.07;38.43;;;;;;;8.70;63.64;100045.63;5101401;28;20995;-65
2021/05/01 01:56:36;;;;;;;59.27;38.00;;;;;;;8.65;63.62;100049.53;5101213;28;20475;-65
2021/05/01 01:59:03;;;;;;;56.50;35.90;;;;;;;8.51;63.52;100047.22;5101385;28;20482;-65
2021/05/01 02:01:29;;;;;;;56.53;36.90;;;;;;;8.50;63.73;100053.53;5101040;28;20474;-65
2021/05/01 02:03:55;;;;;;;53.03;33.20;;;;;;;8.45;63.31;100056.59;5101839;28;20436;-65
2021/05/01 02:06:21;;;;;;;57.40;36.80;;;;;;;8.38;63.99;100057.22;5100989;28;20527;-65
2021/05/01 02:08:48;;;;;;;53.67;36.40;;;;;;;8.41;63.81;100055.13;5100580;28;20447;-65
2021/05/01 02:11:14;;;;;;;58.80;34.37;;;;;;;8.37;63.78;100051.03;5100859;28;20471;-65
2021/05/01 02:13:41;;;;;;;58.00;36.73;;;;;;;8.23;64.18;100060.22;5101439;28;20475;-65
2021/05/01 02:16:07;;;;;;;58.97;35.50;;;;;;;8.23;64.19;100057.56;5100746;28;20471;-65
2021/05/01 02:18:33;;;;;;;48.50;33.00;;;;;;;8.21;64.30;100056.84;5101489;28;20528;-65
2021/05/01 02:21:00;;;;;;;54.83;36.57;;;;;;;8.16;64.32;100052.84;5100630;28;20490;-65
2021/05/01 02:23:26;;;;;;;52.53;33.73;;;;;;;8.13;64.17;100053.97;5101867;28;20439;-65
2021/05/01 02:25:52;;;;;;;51.70;34.07;;;;;;;8.20;64.07;100054.31;5100744;28;20479;-65
2021/05/01 02:28:19;;;;;;;52.20;33.10;;;;;;;8.25;63.98;100052.94;5100973;28;20459;-65
2021/05/01 02:30:46;;;;;;;56.83;36.50;;;;;;;8.27;64.03;100045.66;5100586;28;20481;-65
2021/05/01 02:33:12;;;;;;;54.57;33.87;;;;;;;8.24;64.01;100047.72;5084174;28;20446;-65
2021/05/01 02:35:40;;;;;;;57.70;35.40;;;;;;;8.19;64.29;100034.78;5081895;28;20464;-65
2021/05/01 02:38:07;;;;;;;58.97;35.20;;;;;;;8.27;64.13;100034.16;5081089;28;20498;-65
2021/05/01 02:40:33;;;;;;;58.27;36.47;;;;;;;8.19;64.29;100033.97;5087553;28;20466;-65
2021/05/01 02:43:01;;;;;;;61.87;37.20;;;;;;;8.20;64.40;100039.16;5101519;28;20430;-65
2021/05/01 02:45:27;;;;;;;57.47;35.73;;;;;;;8.13;64.83;100043.31;5094456;28;20472;-65
2021/05/01 02:47:54;;;;;;;54.10;35.00;;;;;;;8.13;64.69;100040.66;5082160;28;20424;-65
2021/05/01 02:50:21;;;;;;;57.13;33.53;;;;;;;8.27;64.18;100040.31;5060349;28;20440;-65
2021/05/01 02:52:47;;;;;;;58.93;35.80;;;;;;;8.39;63.89;100038.44;5061305;28;20449;-64
2021/05/01 02:55:13;;;;;;;58.60;36.33;;;;;;;8.37;63.96;100034.22;5080094;28;20460;-65
2021/05/01 02:57:40;;;;;;;62.67;36.50;;;;;;;8.27;64.71;100031.50;5081313;28;20821;-65
2021/05/01 03:00:08;;;;;;;60.37;37.23;;;;;;;8.39;64.65;100035.78;5102109;28;20469;-65
2021/05/01 03:02:34;;;;;;;58.57;33.33;;;;;;;8.45;64.10;100029.97;5103787;28;20443;-65
2021/05/01 03:05:01;;;;;;;56.27;36.33;;;;;;;8.52;64.12;100027.59;5104976;28;20628;-65
2021/05/01 03:07:27;;;;;;;56.10;35.07;;;;;;;8.58;63.75;100023.56;5092664;28;20472;-65
2021/05/01 03:09:53;;;;;;;54.93;34.97;;;;;;;8.56;63.79;100026.34;5083826;28;20428;-65
2021/05/01 03:12:20;;;;;;;56.20;36.87;;;;;;;8.55;63.96;100016.66;5093157;28;20535;-66
2021/05/01 03:14:46;;;;;;;54.50;37.40;;;;;;;8.52;63.84;100014.25;5103223;28;20844;-65
2021/05/01 03:17:12;;;;;;;58.07;36.37;;;;;;;8.55;63.93;100019.34;5103496;28;20475;-65
2021/05/01 03:19:38;;;;;;;64.63;37.43;;;;;;;8.57;63.91;100011.22;5100913;28;20447;-63
2021/05/01 03:22:06;;;;;;;54.50;34.60;;;;;;;8.67;63.59;100012.94;5083794;28;20475;-62
2021/05/01 03:24:32;;;;;;;53.70;35.10;;;;;;;8.83;63.16;100016.91;5086609;28;20969;-64
2021/05/01 03:26:58;;;;;;;53.63;32.53;;;;;;;9.02;62.77;100010.81;5103924;28;20467;-64
2021/05/01 03:29:25;;;;;;;51.57;33.97;;;;;;;9.13;62.15;100010.69;5101463;28;20625;-64
2021/05/01 03:31:51;;;;;;;50.87;32.33;;;;;;;9.02;62.27;100008.97;5104020;28;20486;-63
2021/05/01 03:34:17;;;;;;;53.13;34.10;;;;;;;9.12;61.88;100006.34;5103939;28;20438;-64
2021/05/01 03:36:43;;;;;;;51.60;33.73;;;;;;;9.13;62.06;100002.69;5103858;28;20479;-65
2021/05/01 03:39:11;;;;;;;56.30;35.07;;;;;;;9.22;61.45;100009.03;5103920;28;20471;-64
2021/05/01 03:41:37;;;;;;;48.50;33.47;;;;;;;8.96;62.55;100019.38;5103577;28;20475;-64
2021/05/01 03:44:04;;;;;;;52.07;32.50;;;;;;;8.93;62.93;100004.47;5103948;28;20455;-64
2021/05/01 03:46:30;;;;;;;57.73;35.73;;;;;;;9.15;62.67;100003.41;5103131;28;21013;-65
2021/05/01 03:48:56;;;;;;;53.33;32.13;;;;;;;9.09;63.01;100003.09;5103932;28;20439;-65
2021/05/01 03:51:23;;;;;;;59.23;36.57;;;;;;;9.03;63.72;100000.00;5103129;28;20478;-64
2021/05/01 03:53:49;;;;;;;51.17;33.20;;;;;;;9.16;63.51;99998.91;5103896;28;20473;-63
2021/05/01 03:56:16;;;;;;;57.50;34.40;;;;;;;9.33;63.08;100000.06;5103080;28;20478;-64
2021/05/01 03:58:43;;;;;;;54.87;35.70;;;;;;;9.46;62.58;99997.97;5103579;28;20525;-63
2021/05/01 04:01:09;;;;;;;54.97;35.20;;;;;;;9.09;63.79;99995.94;5102901;28;20481;-64
2021/05/01 04:03:35;;;;;;;58.87;36.80;;;;;;;8.98;64.46;100002.22;5104072;28;20455;-64
2021/05/01 04:06:02;;;;;;;55.73;33.90;;;;;;;9.35;64.02;99993.59;5102295;28;20482;-64
2021/05/01 04:08:28;;;;;;;54.90;35.10;;;;;;;9.44;63.56;99999.91;5103524;28;20487;-64
2021/05/01 04:10:54;;;;;;;54.77;34.33;;;;;;;9.53;63.10;100004.44;5101465;28;20490;-64
2021/05/01 04:13:21;;;;;;;52.73;34.93;;;;;;;9.67;61.98;100002.31;5103327;28;20442;-64
2021/05/01 04:15:47;;;;;;;50.83;32.50;;;;;;;9.64;61.27;100008.78;5101982;28;20478;-64
2021/05/01 04:18:14;;;;;;;51.93;34.33;;;;;;;9.70;60.68;100004.69;5103716;28;20496;-64
2021/05/01 04:20:40;;;;;;;47.30;30.50;;;;;;;9.61;60.71;100004.53;5102682;28;20474;-64
2021/05/01 04:23:08;;;;;;;44.80;30.70;;;;;;;9.47;60.50;99994.31;5103992;28;20427;-64
2021/05/01 04:25:34;;;;;;;46.50;31.73;;;;;;;9.39;60.79;99997.69;5101899;28;20538;-64
2021/05/01 04:28:01;;;;;;;43.07;30.43;;;;;;;9.48;60.90;100008.47;5103240;28;20480;-64
2021/05/01 04:30:28;;;;;;;43.73;29.27;;;;;;;9.65;60.60;100004.28;5102066;28;20471;-63
2021/05/01 04:32:54;;;;;;;43.53;29.20;;;;;;;9.73;60.27;100007.94;5103775;28;20430;-63
2021/05/01 04:35:20;;;;;;;39.90;28.53;;;;;;;9.89;60.04;100006.50;5101853;28;20772;-63
2021/05/01 04:37:46;;;;;;;42.70;29.73;;;;;;;9.90;60.32;100016.22;5102995;28;20487;-64
2021/05/01 04:40:13;;;;;;;49.17;32.70;;;;;;;9.85;60.90;100015.81;5102069;28;20439;-63
2021/05/01 04:42:46;;;;;;;46.43;31.50;;;;;;;9.97;61.15;100012.81;5103733;28;20435;-63
2021/05/01 04:45:13;;;;;;;44.23;29.57;;;;;;;10.02;60.76;100017.75;5101750;28;20650;-63
2021/05/01 04:47:40;;;;;;;47.33;29.63;;;;;;;10.20;60.02;100014.34;5103504;28;20427;-64
2021/05/01 04:50:10;;;;;;;42.57;30.40;;;;;;;10.15;60.34;100025.44;5101920;28;20479;-64
2021/05/01 04:52:37;;;;;;;42.57;28.70;;;;;;;10.20;59.90;100017.84;5103060;28;20432;-64
2021/05/01 04:55:10;;;;;;;47.57;29.80;;;;;;;10.18;60.25;100018.00;5102675;28;20451;-64
2021/05/01 04:57:37;;;;;;;47.90;31.53;;;;;;;10.02;60.91;100023.09;5102161;28;20494;-63
2021/05/01 05:00:03;;;;;;;46.23;32.50;;;;;;;9.78;61.99;100019.03;5102386;28;20837;-64
2021/05/01 05:02:30;;;;;;;47.80;32.20;;;;;;;10.10;61.61;100025.91;5102410;28;20462;-63
2021/05/01 05:04:57;;;;;;;48.27;32.00;;;;;;;9.87;62.19;100028.00;5102679;28;20453;-64
2021/05/01 05:07:23;;;;;;;47.00;31.93;;;;;;;10.05;62.12;100022.81;5101450;28;20479;-64
2021/05/01 05:09:50;;;;;;;50.00;31.70;;;;;;;10.38;61.55;100025.16;5101375;28;20481;-63
2021/05/01 05:12:16;;;;;;;48.53;32.60;;;;;;;10.58;61.27;100028.63;5102049;28;20493;-63
2021/05/01 05:14:42;;;;;;;48.23;32.27;;;;;;;10.45;61.54;100034.28;5101860;28;20871;-64
2021/05/01 05:17:08;;;;;;;47.63;33.10;;;;;;;10.67;61.17;100031.25;5100953;28;20686;-64
2021/05/01 05:19:34;;;;;;;51.77;33.20;;;;;;;10.82;61.19;100031.59;5102519;28;20481;-63
2021/05/01 05:22:01;;;;;;;50.30;32.73;;;;;;;11.00;60.74;100038.84;5101728;28;20474;-63
2021/05/01 05:24:27;;;;;;;52.87;34.93;;;;;;;10.79;61.39;100031.91;5102025;28;20450;-63
2021/05/01 05:26:54;;;;;;;47.37;33.17;;;;;;;10.91;61.19;100045.94;5100844;28;20478;-64
2021/05/01 05:29:20;;;;;;;46.73;31.17;;;;;;;10.95;61.41;100049.16;5101695;28;20466;-64
2021/05/01 05:31:46;;;;;;;46.57;31.60;;;;;;;10.91;62.02;100056.63;5101632;28;20635;-64
2021/05/01 05:34:12;;;;;;;51.20;34.97;;;;;;;10.92;62.17;100055.66;5102176;28;20435;-64
2021/05/01 05:36:39;;;;;;;55.13;34.33;;;;;;;10.64;62.47;100055.63;5100417;28;20495;-64
2021/05/01 05:39:06;;;;;;;54.57;36.73;;;;;;;10.71;62.61;100059.38;5101786;28;20467;-65
2021/05/01 05:41:33;;;;;;;54.00;36.10;;;;;;;10.79;62.62;100057.81;5101510;28;20478;-66
2021/05/01 05:43:59;;;;;;;54.37;35.77;;;;;;;10.82;62.57;100058.34;5101248;28;20459;-63
2021/05/01 05:46:25;;;;;;;60.70;41.67;;;;;;;10.92;62.48;100064.50;5101173;28;20516;-64
2021/05/01 05:48:52;;;;;;;55.40;38.07;;;;;;;10.63;63.79;100064.63;5101758;28;20508;-64
2021/05/01 05:51:18;;;;;;;54.30;38.17;;;;;;;10.87;63.43;100057.94;5101494;28;21014;-63
2021/05/01 05:53:44;;;;;;;57.27;38.43;;;;;;;10.69;63.56;100052.47;5100928;28;20458;-63
2021/05/01 05:56:11;;;;;;;63.27;40.00;;;;;;;10.47;64.70;100056.38;5100671;28;20543;-64
2021/05/01 05:58:37;;;;;;;62.70;38.83;;;;;;;10.29;65.35;100054.38;5100735;28;20537;-64
2021/05/01 06:01:03;;;;;;;60.13;37.83;;;;;;;10.53;64.75;100053.94;5101181;28;20470;-65
2021/05/01 06:03:30;;;;;;;68.97;41.73;;;;;;;10.40;65.27;100061.44;5101828;28;20442;-65
2021/05/01 06:06:00;;;;;;;60.60;39.90;;;;;;;10.46;65.16;100057.34;5100480;28;20471;-65
2021/05/01 06:08:29;;;;;;;66.80;41.13;;;;;;;10.57;65.22;100057.16;5101225;28;20469;-65
2021/05/01 06:10:57;;;;;;;72.07;42.57;;;;;;;10.36;65.54;100052.88;5099907;28;20605;-64
2021/05/01 06:13:24;;;;;;;76.33;44.40;;;;;;;10.43;65.44;100063.81;5101243;28;20455;-65
2021/05/01 06:15:51;;;;;;;81.67;47.80;;;;;;;10.63;65.28;100064.63;5100734;28;20475;-65
2021/05/01 06:18:22;;;;;;;75.27;47.63;;;;;;;10.72;65.10;100066.41;5101061;28;20498;-65
2021/05/01 06:20:48;;;;;;;81.53;47.30;;;;;;;10.99;64.92;100074.59;5101062;28;20498;-64
2021/05/01 06:23:16;;;;;;;85.43;48.40;;;;;;;10.72;65.50;100069.06;5101628;28;20475;-64
2021/05/01 06:25:44;;;;;;;85.97;49.10;;;;;;;11.28;64.15;100066.44;5100710;28;20466;-64
2021/05/01 06:28:10;;;;;;;75.60;46.50;;;;;;;10.95;64.66;100070.53;5100984;28;20443;-65
2021/05/01 06:30:39;;;;;;;89.23;49.90;;;;;;;11.28;63.67;100072.66;5100296;28;20471;-65
2021/05/01 06:33:06;;;;;;;77.33;46.10;;;;;;;11.59;62.67;100074.97;5102546;28;20523;-65
2021/05/01 06:35:32;;;;;;;82.63;48.13;;;;;;;11.55;62.29;100078.13;5102854;28;20466;-65
2021/05/01 06:37:58;;;;;;;78.97;47.00;;;;;;;11.99;61.62;100064.84;5105607;28;20466;-65
2021/05/01 06:40:31;;;;;;;84.40;47.70;;;;;;;11.94;61.59;100070.66;5103976;28;20466;-65
2021/05/01 06:43:01;;;;;;;83.00;47.97;;;;;;;12.14;61.76;100078.53;5105940;28;20427;-65
2021/05/01 06:45:27;;;;;;;83.40;48.03;;;;;;;11.98;61.71;100080.06;5103513;28;20474;-65
2021/05/01 06:47:57;;;;;;;71.70;44.90;;;;;;;11.79;62.23;100066.81;5105370;28;20430;-65
2021/05/01 06:50:26;;;;;;;83.63;47.57;;;;;;;12.27;61.24;100070.91;5104439;28;20454;-65
2021/05/01 06:52:52;;;;;;;79.30;46.03;;;;;;;12.76;59.85;100070.41;5105332;28;20908;-65
2021/05/01 06:55:20;;;;;;;71.57;45.80;;;;;;;13.16;58.27;100069.75;5103747;28;20450;-66
2021/05/01 06:57:47;;;;;;;61.90;39.67;;;;;;;13.22;57.30;100078.16;5104334;28;20455;-65
2021/05/01 07:00:15;;;;;;;58.27;38.00;;;;;;;13.07;57.91;100070.75;5104382;28;20455;-65
2021/05/01 07:02:44;;;;;;;58.90;39.17;;;;;;;13.06;58.26;100079.78;5105978;28;20462;-65
2021/05/01 07:05:15;;;;;;;59.20;39.87;;;;;;;12.66;58.79;100081.25;5104591;28;20451;-64
2021/05/01 07:07:41;;;;;;;56.13;38.00;;;;;;;12.60;59.22;100082.72;5104036;28;20651;-65
2021/05/01 07:10:09;;;;;;;56.87;39.87;;;;;;;12.83;58.28;100074.16;5102986;28;20451;-65
2021/05/01 07:12:36;;;;;;;59.20;37.63;;;;;;;12.67;59.36;100082.09;5104446;28;20438;-65
2021/05/01 07:15:03;;;;;;;50.03;37.63;;;;;;;12.66;58.46;100069.69;5103332;28;20455;-65
2021/05/01 07:17:30;;;;;;;51.60;33.23;;;;;;;13.01;57.71;100074.06;5103792;28;20469;-64
2021/05/01 07:19:58;;;;;;;51.60;34.60;;;;;;;12.86;58.67;100075.66;5104235;28;20474;-65
2021/05/01 07:22:25;;;;;;;46.97;33.00;;;;;;;14.22;54.88;100072.84;5104338;28;20474;-65
2021/05/01 07:24:52;;;;;;;47.90;32.77;;;;;;;14.84;53.44;100072.25;5104125;28;20454;-65
2021/05/01 07:27:18;;;;;;;38.87;29.87;;;;;;;16.83;47.04;100079.66;5103858;28;20894;-65
2021/05/01 07:29:46;;;;;;;37.77;28.87;;;;;;;17.87;45.16;100062.50;5103593;28;20474;-65
2021/05/01 07:32:16;;;;;;;36.00;27.27;;;;;;;16.49;46.78;100067.53;5103859;28;20869;-65
2021/05/01 07:34:49;;;;;;;40.40;27.10;;;;;;;15.73;49.15;100061.25;5087927;28;20458;-65
2021/05/01 07:37:19;;;;;;;32.50;25.97;;;;;;;16.81;47.47;100059.28;5062100;28;20840;-65
2021/05/01 07:39:48;;;;;;;34.53;26.10;;;;;;;16.73;46.21;100058.38;5082208;28;20475;-65
2021/05/01 07:42:17;;;;;;;32.17;24.60;;;;;;;15.65;48.86;100059.41;5082891;28;20506;-65
2021/05/01 07:44:44;;;;;;;31.23;23.90;;;;;;;15.05;50.63;100066.28;5091671;28;20451;-65
2021/05/01 07:47:10;;;;;;;33.80;25.20;;;;;;;13.99;53.36;100072.66;5101454;28;20474;-65
2021/05/01 07:49:37;;;;;;;33.00;24.33;;;;;;;14.36;52.23;100074.00;5091877;28;20449;-64
2021/05/01 07:52:04;;;;;;;34.20;25.00;;;;;;;13.38;54.74;100080.94;5080217;28;20544;-61
2021/05/01 07:54:33;;;;;;;31.80;24.70;;;;;;;14.06;53.54;100079.03;5062115;28;20487;-61
2021/05/01 07:57:00;;;;;;;31.90;26.80;;;;;;;13.73;54.18;100077.19;5084644;28;20506;-61
2021/05/01 07:59:26;;;;;;;35.60;26.43;;;;;;;13.34;55.20;100083.09;5102168;28;20490;-61
2021/05/01 08:01:52;;;;;;;33.43;25.20;;;;;;;14.21;53.31;100079.22;5100429;28;20483;-61
2021/05/01 08:04:18;;;;;;;33.57;25.57;;;;;;;15.20;51.22;100077.16;5083143;28;20440;-61
2021/05/01 08:06:44;;;;;;;35.77;27.87;;;;;;;15.23;50.02;100080.34;5080345;28;20583;-62
2021/05/01 08:09:11;;;;;;;32.83;26.63;;;;;;;14.99;50.89;100086.66;5081731;28;20452;-62
2021/05/01 08:11:37;;;;;;;36.83;27.10;;;;;;;13.31;54.49;100090.63;5081823;28;20487;-62
2021/05/01 08:14:04;;;;;;;37.33;27.27;;;;;;;13.60;54.57;100089.41;5081170;28;20482;-62
2021/05/01 08:16:30;;;;;;;39.10;30.30;;;;;;;13.78;54.05;100087.41;5081298;28;20480;-62
2021/05/01 08:18:57;;;;;;;36.93;27.50;;;;;;;14.68;53.12;100086.59;5084353;28;20484;-67
2021/05/01 08:21:23;;;;;;;37.23;26.60;;;;;;;14.00;53.66;100093.16;5100565;28;20475;-66
2021/05/01 08:23:50;;;;;;;35.50;28.03;;;;;;;13.90;54.39;100094.13;5091157;28;20729;-66
2021/05/01 08:26:16;;;;;;;31.00;24.20;;;;;;;13.89;54.62;100097.84;5068301;28;20472;-64
2021/05/01 08:28:42;;;;;;;32.27;25.20;;;;;;;13.49;55.05;100109.34;5082109;28;20479;-65
2021/05/01 08:31:09;;;;;;;31.27;23.47;;;;;;;13.74;54.28;100097.66;5084112;28;20482;-65
2021/05/01 08:33:35;;;;;;;32.63;24.17;;;;;;;14.37;52.45;100100.72;5080362;28;20771;-62
2021/05/01 08:36:02;;;;;;;29.30;23.53;;;;;;;14.38;52.00;100109.63;5058724;28;20563;-68
2021/05/01 08:38:32;;;;;;;27.83;22.00;;;;;;;13.85;53.18;100109.94;5084290;28;20479;-64
2021/05/01 08:40:59;;;;;;;28.57;23.23;;;;;;;13.73;54.24;100095.97;5099782;28;20471;-65
2021/05/01 08:43:25;;;;;;;32.63;23.80;;;;;;;12.99;56.39;100105.59;5092477;28;20443;-63
2021/05/01 08:45:53;;;;;;;30.93;24.37;;;;;;;13.20;55.67;100105.19;5099565;28;20478;-63
2021/05/01 08:48:21;;;;;;;34.07;24.97;;;;;;;13.42;54.47;100108.28;5100413;28;20443;-64
2021/05/01 08:50:49;;;;;;;32.77;23.40;;;;;;;13.87;53.33;100096.31;5078217;28;20472;-65
2021/05/01 08:53:16;;;;;;;30.23;22.70;;;;;;;13.79;52.79;100099.84;5094408;28;20451;-64
2021/05/01 08:55:42;;;;;;;34.40;23.80;;;;;;;13.99;52.70;100097.69;5098881;28;20475;-65
2021/05/01 08:58:10;;;;;;;34.10;23.87;;;;;;;14.65;50.32;100095.84;5079851;28;21011;-64
2021/05/01 09:00:38;;;;;;;28.47;22.70;;;;;;;14.45;50.66;100098.03;5079504;28;20648;-64
2021/05/01 09:03:06;;;;;;;30.17;21.40;;;;;;;14.92;50.22;100101.00;5080448;28;20432;-64
2021/05/01 09:05:35;;;;;;;28.63;21.63;;;;;;;14.91;49.87;100093.94;5081028;28;20755;-64
2021/05/01 09:08:04;;;;;;;31.37;23.60;;;;;;;14.11;51.77;100093.69;5081364;28;20436;-64
2021/05/01 09:10:37;;;;;;;29.90;23.90;;;;;;;13.62;52.83;100115.09;5079030;28;20542;-64
2021/05/01 09:13:11;;;;;;;32.50;24.43;;;;;;;13.30;53.65;100105.06;5078994;28;20416;-63
2021/05/01 09:15:37;;;;;;;29.90;23.80;;;;;;;13.39;54.11;100114.84;5084514;28;20557;-65
2021/05/01 09:18:06;;;;;;;29.77;24.07;;;;;;;13.58;53.44;100111.06;5099003;28;20493;-64
2021/05/01 09:20:36;;;;;;;34.93;26.63;;;;;;;13.18;54.54;100115.25;5079534;28;20517;-65
2021/05/01 09:23:04;;;;;;;30.33;24.47;;;;;;;12.37;57.67;100117.25;5094402;28;20451;-67
2021/05/01 09:25:32;;;;;;;32.47;25.43;;;;;;;12.59;56.61;100120.44;5092613;28;20498;-67
2021/05/01 09:28:06;;;;;;;28.77;24.10;;;;;;;11.99;57.54;100121.09;5088492;28;20452;-62
2021/05/01 09:30:34;;;;;;;32.23;24.03;;;;;;;12.38;57.48;100118.09;5076162;28;20478;-65
2021/05/01 09:33:24;;;;;;;28.97;23.53;;;;;;;12.73;56.10;100130.56;5074906;28;20938;-65
2021/05/01 09:35:54;;;;;;;30.57;23.53;;;;;;;12.61;56.47;100131.84;5080309;28;20606;-65
2021/05/01 09:38:21;;;;;;;31.67;25.63;;;;;;;12.91;56.02;100127.81;5080667;28;20481;-66
2021/05/01 09:40:49;;;;;;;35.50;24.80;;;;;;;13.04;55.53;100118.50;5084481;28;20467;-66
2021/05/01 09:43:16;;;;;;;31.43;24.10;;;;;;;13.55;54.11;100119.44;5086495;28;20908;-66
2021/05/01 09:45:42;;;;;;;28.90;22.70;;;;;;;14.07;52.59;100105.75;5082162;28;20525;-65
2021/05/01 09:48:13;;;;;;;32.50;23.77;;;;;;;14.73;51.00;100113.00;5082216;28;20447;-63
2021/05/01 09:50:40;;;;;;;32.23;24.83;;;;;;;14.98;49.51;100111.94;5073104;28;21008;-66
2021/05/01 09:53:10;;;;;;;31.90;23.90;;;;;;;14.88;49.21;100105.91;5082726;28;20447;-67
2021/05/01 09:55:41;;;;;;;29.70;24.60;;;;;;;14.47;49.58;100112.13;5086210;28;20546;-68
2021/05/01 09:58:13;;;;;;;31.30;23.90;;;;;;;14.97;48.81;100104.03;5053750;28;21478;-65
2021/05/01 10:00:39;;;;;;;31.13;23.70;;;;;;;15.75;47.79;100103.19;5082982;28;20469;-65
2021/05/01 10:03:19;;;;;;;28.93;23.30;;;;;;;15.13;47.74;100103.13;5080564;28;20456;-66
2021/05/01 10:05:48;;;;;;;27.40;22.87;;;;;;;15.25;47.40;100101.72;5083370;28;20480;-67
2021/05/01 10:08:16;;;;;;;27.23;23.10;;;;;;;14.92;47.70;100104.53;5084739;28;20444;-61
2021/05/01 10:10:42;;;;;;;34.63;24.70;;;;;;;14.82;47.87;100096.63;5082318;28;20522;-66
2021/05/01 10:13:09;;;;;;;28.50;23.17;;;;;;;13.68;50.66;100103.69;5088781;28;20450;-65
2021/05/01 10:15:36;;;;;;;26.70;22.67;;;;;;;13.19;52.13;100104.34;5079034;28;20474;-65
2021/05/01 10:18:10;;;;;;;32.93;25.07;;;;;;;14.04;49.99;100094.50;5081132;28;20443;-66
2021/05/01 10:20:41;;;;;;;36.00;24.90;;;;;;;14.37;49.40;100091.81;5084613;28;20460;-65
2021/05/01 10:23:09;;;;;;;28.80;23.83;;;;;;;14.19;49.75;100100.06;5086719;28;20447;-66
2021/05/01 10:25:36;;;;;;;28.93;22.53;;;;;;;14.20;50.33;100096.34;5075226;28;20471;-63
2021/05/01 10:28:05;;;;;;;29.70;23.43;;;;;;;14.21;50.26;100100.72;5082400;28;20934;-67
2021/05/01 10:30:34;;;;;;;32.80;24.20;;;;;;;14.56;49.59;100096.81;5089234;28;20471;-66
2021/05/01 10:33:11;;;;;;;30.93;24.57;;;;;;;14.83;48.16;100092.13;5096465;28;20608;-62
2021/05/01 10:35:38;;;;;;;30.13;22.90;;;;;;;15.93;45.78;100083.19;5096739;28;20553;-63
2021/05/01 10:38:06;;;;;;;34.10;23.23;;;;;;;16.06;44.67;100088.81;5097804;28;20446;-64
2021/05/01 10:40:48;;;;;;;26.33;21.60;;;;;;;15.98;44.36;100089.72;5096251;28;20473;-64
2021/05/01 10:43:17;;;;;;;29.83;23.77;;;;;;;15.92;45.23;100089.59;5078256;28;20450;-64
2021/05/01 10:45:52;;;;;;;25.47;21.57;;;;;;;16.55;43.77;100088.38;5097226;28;20467;-64
2021/05/01 10:48:19;;;;;;;27.70;22.00;;;;;;;17.41;42.23;100087.97;5097469;28;20453;-63
2021/05/01 10:50:46;;;;;;;25.63;21.83;;;;;;;17.54;41.27;100091.84;5097937;28;20980;-63
2021/05/01 10:53:20;;;;;;;28.00;21.83;;;;;;;17.40;41.66;100094.38;5099250;28;20523;-63
2021/05/01 10:55:49;;;;;;;23.97;21.37;;;;;;;17.09;41.88;100091.91;5096894;28;20516;-63
2021/05/01 10:58:35;;;;;;;24.37;21.63;;;;;;;17.65;41.33;100094.91;5099103;28;20513;-64
2021/05/01 11:01:04;;;;;;;23.67;20.60;;;;;;;19.19;37.30;100086.19;5084563;28;20541;-64
2021/05/01 11:03:30;;;;;;;26.37;21.63;;;;;;;19.57;36.89;100087.59;5081851;28;20854;-64
2021/05/01 11:05:59;;;;;;;25.17;21.20;;;;;;;19.63;35.25;100094.91;5098079;28;20471;-63
2021/05/01 11:08:33;;;;;;;25.20;20.40;;;;;;;18.48;35.99;100082.81;5098958;28;20439;-64
2021/05/01 11:11:02;;;;;;;27.67;22.10;;;;;;;17.74;36.81;100086.66;5097187;28;20463;-63
2021/05/01 11:13:30;;;;;;;23.27;20.50;;;;;;;17.36;37.52;100081.44;5098599;28;20542;-63